Time;durP1;ratioP1;P1;durP2;ratioP2;P2;SDS_P1;SDS_P2;PMS_P1;PMS_P2;Temp;Humidity;BMP_temperature;BMP_pressure;BME280_temperature;BME280_humidity;BME280_pressure;Samples;Min_cycle;Max_cycle;Signal;HPM_P1;HPM_P2
2022/01/22 00:00:07;;;;;;;15.37;8.47;;;;;;;;;;5014291;28;20619;-61
2022/01/22 00:02:32;;;;;;;13.27;7.90;;;;;;;;;;5014217;28;20203;-62
2022/01/22 00:04:58;;;;;;;15.40;8.53;;;;;;;;;;5013537;28;20190;-63
2022/01/22 00:07:24;;;;;;;14.13;8.23;;;;;;;;;;5014155;28;20659;-62
2022/01/22 00:09:57;;;;;;;21.10;9.27;;;;;;;;;;5014030;28;20179;-62
2022/01/22 00:12:55;;;;;;;15.23;9.00;;;;;;;;;;5014336;28;20207;-62
2022/01/22 00:15:13;;;;;;;19.60;10.30;;;;;;;;;;5014453;28;20631;-62
2022/01/22 00:17:39;;;;;;;17.87;9.50;;;;;;;;;;5012760;28;20637;-62
2022/01/22 00:20:06;;;;;;;19.57;10.60;;;;;;;;;;5013068;28;20188;-63
2022/01/22 00:22:34;;;;;;;18.67;9.30;;;;;;;;;;5014001;28;20676;-63
2022/01/22 00:25:02;;;;;;;16.20;9.20;;;;;;;;;;5012798;28;20192;-63
2022/01/22 00:27:28;;;;;;;17.03;9.30;;;;;;;;;;5012632;28;20207;-63
2022/01/22 00:29:54;;;;;;;15.50;9.30;;;;;;;;;;5014568;28;20662;-62
2022/01/22 00:32:20;;;;;;;15.40;9.80;;;;;;;;;;5014221;28;20282;-62
2022/01/22 00:34:46;;;;;;;14.87;10.27;;;;;;;;;;5013848;28;20175;-62
2022/01/22 00:37:12;;;;;;;22.47;9.77;;;;;;;;;;5012742;28;20180;-62
2022/01/22 00:39:38;;;;;;;14.50;8.70;;;;;;;;;;5013804;28;20184;-62
2022/01/22 00:42:10;;;;;;;17.03;9.87;;;;;;;;;;5012199;28;20211;-62
2022/01/22 00:44:36;;;;;;;17.80;8.97;;;;;;;;;;5012800;28;20176;-63
2022/01/22 00:47:03;;;;;;;21.50;9.93;;;;;;;;;;5013271;28;20327;-63
2022/01/22 00:49:29;;;;;;;19.87;9.90;;;;;;;;;;5012860;28;20198;-62
2022/01/22 00:51:55;;;;;;;16.30;8.43;;;;;;;;;;5013811;28;20220;-63
2022/01/22 00:54:21;;;;;;;15.00;8.30;;;;;;;;;;5013895;28;20555;-63
2022/01/22 00:56:47;;;;;;;18.27;9.43;;;;;;;;;;5014742;28;20182;-63
2022/01/22 00:59:13;;;;;;;18.53;9.33;;;;;;;;;;5014760;28;20180;-63
2022/01/22 01:01:39;;;;;;;15.30;8.33;;;;;;;;;;5013473;28;20187;-62
2022/01/22 01:04:08;;;;;;;13.83;9.53;;;;;;;;;;5014318;28;20210;-63
2022/01/22 01:06:34;;;;;;;18.10;9.57;;;;;;;;;;5018943;28;20180;-62
2022/01/22 01:09:01;;;;;;;22.73;9.73;;;;;;;;;;5017244;28;20195;-63
2022/01/22 01:11:29;;;;;;;20.43;10.03;;;;;;;;;;5018514;28;20206;-63
2022/01/22 01:13:59;;;;;;;23.60;11.30;;;;;;;;;;5018137;28;20183;-63
2022/01/22 01:35:21;;;;;;;18.53;11.43;;;;;;;;;;5016927;28;20295;-63
2022/01/22 01:37:47;;;;;;;15.80;11.03;;;;;;;;;;5015401;28;20562;-63
2022/01/22 01:40:18;;;;;;;24.60;10.93;;;;;;;;;;5017277;28;20180;-63
2022/01/22 01:43:22;;;;;;;20.27;11.47;;;;;;;;;;5017624;28;20581;-62
2022/01/22 01:45:36;;;;;;;18.97;12.27;;;;;;;;;;5014826;28;20610;-62
2022/01/22 01:48:08;;;;;;;20.97;11.93;;;;;;;;;;5016056;28;20183;-62
2022/01/22 01:50:37;;;;;;;22.70;11.47;;;;;;;;;;5015786;28;20623;-63
2022/01/22 01:58:36;;;;;;;17.83;11.17;;;;;;;;;;4976344;28;20759;-62
2022/01/22 02:01:03;;;;;;;19.73;11.70;;;;;;;;;;5007939;28;20195;-63
2022/01/22 02:03:29;;;;;;;25.07;12.87;;;;;;;;;;5015980;28;20295;-62
2022/01/22 02:05:55;;;;;;;20.10;13.57;;;;;;;;;;5026807;28;20180;-63
2022/01/22 02:08:22;;;;;;;24.50;13.67;;;;;;;;;;5031895;28;20215;-63
2022/01/22 02:10:56;;;;;;;25.73;13.37;;;;;;;;;;5030473;28;20192;-63
2022/01/22 02:24:22;;;;;;;26.83;14.07;;;;;;;;;;5035816;28;20194;-66
2022/01/22 02:26:50;;;;;;;24.80;15.67;;;;;;;;;;5035490;28;20179;-65
2022/01/22 02:29:16;;;;;;;23.53;15.03;;;;;;;;;;5035285;28;20186;-65
2022/01/22 02:31:53;;;;;;;24.63;14.30;;;;;;;;;;5033847;28;20256;-66
2022/01/22 02:34:32;;;;;;;26.13;14.30;;;;;;;;;;5035352;28;20160;-66
2022/01/22 02:37:06;;;;;;;24.20;15.13;;;;;;;;;;5035684;28;20663;-66
2022/01/22 02:39:43;;;;;;;22.80;15.00;;;;;;;;;;5035223;28;20155;-66
2022/01/22 02:42:09;;;;;;;30.10;16.03;;;;;;;;;;5033760;28;20171;-67
2022/01/22 02:44:43;;;;;;;20.30;15.37;;;;;;;;;;5034868;28;20187;-66
2022/01/22 02:47:09;;;;;;;27.37;17.93;;;;;;;;;;5033502;28;20179;-68
2022/01/22 02:49:36;;;;;;;25.17;16.10;;;;;;;;;;5035002;28;20202;-66
2022/01/22 02:52:07;;;;;;;27.63;16.00;;;;;;;;;;5033571;28;20214;-66
2022/01/22 02:54:33;;;;;;;26.80;16.43;;;;;;;;;;5033601;28;20325;-66
2022/01/22 02:56:59;;;;;;;25.73;16.80;;;;;;;;;;5034618;28;20628;-66
2022/01/22 02:59:25;;;;;;;30.87;17.40;;;;;;;;;;5033228;28;20190;-67
2022/01/22 03:01:52;;;;;;;34.03;23.30;;;;;;;;;;5033788;28;20179;-67
2022/01/22 03:04:18;;;;;;;27.17;17.63;;;;;;;;;;5033464;28;20193;-67
2022/01/22 03:06:46;;;;;;;40.50;26.20;;;;;;;;;;5033749;28;20249;-66
2022/01/22 03:09:14;;;;;;;38.13;23.93;;;;;;;;;;5034557;28;20598;-67
2022/01/22 03:11:48;;;;;;;38.07;21.83;;;;;;;;;;5033116;28;20207;-67
2022/01/22 03:16:54;;;;;;;42.00;22.20;;;;;;;;;;5034527;28;20183;-66
2022/01/22 03:22:19;;;;;;;38.20;23.83;;;;;;;;;;5034613;28;20245;-66
2022/01/22 03:27:31;;;;;;;50.93;29.10;;;;;;;;;;5033841;28;20179;-67
2022/01/22 03:29:57;;;;;;;40.33;22.13;;;;;;;;;;5034422;28;20198;-67
2022/01/22 03:32:27;;;;;;;40.63;24.03;;;;;;;;;;5034298;28;20177;-67
2022/01/22 03:34:59;;;;;;;33.90;22.23;;;;;;;;;;5039288;28;20643;-66
2022/01/22 03:37:26;;;;;;;32.63;19.40;;;;;;;;;;5038376;28;20217;-67
2022/01/22 03:39:52;;;;;;;37.83;22.53;;;;;;;;;;5034023;28;20551;-66
2022/01/22 03:42:18;;;;;;;40.70;22.13;;;;;;;;;;5033830;28;20202;-67
2022/01/22 03:44:44;;;;;;;43.80;23.30;;;;;;;;;;5033783;28;20179;-67
2022/01/22 03:47:10;;;;;;;36.57;22.50;;;;;;;;;;5033729;28;20667;-66
2022/01/22 03:49:36;;;;;;;37.37;24.03;;;;;;;;;;5033854;28;20199;-66
2022/01/22 03:52:03;;;;;;;35.17;22.87;;;;;;;;;;5032496;28;20682;-66
2022/01/22 03:54:29;;;;;;;40.33;22.17;;;;;;;;;;5033844;28;20179;-66
2022/01/22 03:56:55;;;;;;;36.10;23.27;;;;;;;;;;5033687;28;20258;-67
2022/01/22 03:59:21;;;;;;;37.87;24.10;;;;;;;;;;5033590;28;20175;-67
2022/01/22 04:04:24;;;;;;;36.93;24.70;;;;;;;;;;5034041;28;20164;-68
2022/01/22 04:09:40;;;;;;;36.00;23.00;;;;;;;;;;5033706;28;20233;-66
2022/01/22 04:12:06;;;;;;;35.20;22.40;;;;;;;;;;5033390;28;20206;-67
2022/01/22 04:14:35;;;;;;;37.73;21.60;;;;;;;;;;5032287;28;20270;-67
2022/01/22 04:17:19;;;;;;;34.13;22.30;;;;;;;;;;5033774;28;20177;-66
2022/01/22 04:25:20;;;;;;;32.13;21.63;;;;;;;;;;5033410;28;20167;-68
2022/01/22 04:27:48;;;;;;;35.93;22.53;;;;;;;;;;5033118;28;20160;-68
2022/01/22 04:30:14;;;;;;;37.07;22.27;;;;;;;;;;5033093;28;20211;-67
2022/01/22 04:32:40;;;;;;;34.90;23.43;;;;;;;;;;5033764;28;20621;-67
2022/01/22 04:35:06;;;;;;;35.80;23.13;;;;;;;;;;5033142;28;20180;-67
2022/01/22 04:37:32;;;;;;;37.03;24.10;;;;;;;;;;5033646;28;20183;-67
2022/01/22 04:39:58;;;;;;;41.03;24.30;;;;;;;;;;5037492;28;20638;-67
2022/01/22 04:42:25;;;;;;;41.23;24.87;;;;;;;;;;5038422;28;20330;-68
2022/01/22 04:44:58;;;;;;;34.00;21.73;;;;;;;;;;5038625;28;20178;-68
2022/01/22 04:47:33;;;;;;;36.23;21.93;;;;;;;;;;5036909;28;20171;-67
2022/01/22 04:54:58;;;;;;;36.17;24.60;;;;;;;;;;5037502;28;20264;-67
2022/01/22 04:55:30;;;;;;;45.20;25.67;;;;;;;;;;5036589;28;20187;-68
2022/01/22 04:57:56;;;;;;;46.50;28.40;;;;;;;;;;5035405;28;20217;-68
2022/01/22 05:00:22;;;;;;;36.23;24.97;;;;;;;;;;5036865;28;20203;-68
2022/01/22 05:02:50;;;;;;;52.13;31.37;;;;;;;;;;5035494;28;20210;-68
2022/01/22 05:05:15;;;;;;;50.57;30.23;;;;;;;;;;5036652;28;20186;-68
2022/01/22 05:07:42;;;;;;;38.73;24.50;;;;;;;;;;5036595;28;20175;-67
2022/01/22 05:10:08;;;;;;;39.17;24.07;;;;;;;;;;5036661;28;20662;-67
2022/01/22 05:12:34;;;;;;;40.67;26.70;;;;;;;;;;5036481;28;20168;-68
2022/01/22 05:15:00;;;;;;;45.93;29.27;;;;;;;;;;5037033;28;20183;-68
2022/01/22 05:17:26;;;;;;;42.10;22.10;;;;;;;;;;5036701;28;20175;-67
2022/01/22 05:20:04;;;;;;;39.07;21.87;;;;;;;;;;5034809;28;20254;-66
2022/01/22 05:22:49;;;;;;;38.40;24.00;;;;;;;;;;5036579;28;20165;-67
2022/01/22 05:25:21;;;;;;;36.07;23.97;;;;;;;;;;5036281;28;20658;-67
2022/01/22 05:38:21;;;;;;;37.80;24.57;;;;;;;;;;5036563;28;20174;-66
2022/01/22 05:40:47;;;;;;;42.17;24.80;;;;;;;;;;5034717;28;20637;-66
2022/01/22 05:43:13;;;;;;;47.03;24.23;;;;;;;;;;5036197;28;20225;-67
2022/01/22 05:45:39;;;;;;;39.83;25.03;;;;;;;;;;5034819;28;20183;-67
2022/01/22 05:48:05;;;;;;;37.60;24.67;;;;;;;;;;5035934;28;20308;-67
2022/01/22 05:50:46;;;;;;;39.03;25.03;;;;;;;;;;5034741;28;20207;-67
2022/01/22 05:54:00;;;;;;;35.10;24.37;;;;;;;;;;5036214;28;20163;-66
2022/01/22 06:01:20;;;;;;;40.23;25.00;;;;;;;;;;5036079;28;20260;-66
2022/01/22 06:03:46;;;;;;;42.17;25.47;;;;;;;;;;5035555;28;20178;-66
2022/01/22 06:06:13;;;;;;;127.47;70.93;;;;;;;;;;5035555;28;20671;-66
2022/01/22 06:08:46;;;;;;;67.07;40.13;;;;;;;;;;5034450;28;20190;-65
2022/01/22 06:11:20;;;;;;;48.50;30.90;;;;;;;;;;5035501;28;20261;-65
2022/01/22 06:13:46;;;;;;;38.93;26.13;;;;;;;;;;5035584;28;20159;-66
2022/01/22 06:16:13;;;;;;;48.63;28.70;;;;;;;;;;5035244;28;20172;-66
2022/01/22 06:18:39;;;;;;;50.83;32.50;;;;;;;;;;5035187;28;20175;-66
2022/01/22 06:21:06;;;;;;;49.80;31.83;;;;;;;;;;5035121;28;20297;-66
2022/01/22 06:23:32;;;;;;;50.43;30.13;;;;;;;;;;5035403;28;20179;-66
2022/01/22 06:26:00;;;;;;;39.93;25.53;;;;;;;;;;5033855;28;20191;-66
2022/01/22 06:28:26;;;;;;;79.60;44.07;;;;;;;;;;5035140;28;20258;-67
2022/01/22 06:30:52;;;;;;;64.60;40.00;;;;;;;;;;5033835;28;20233;-66
2022/01/22 06:33:18;;;;;;;49.33;31.30;;;;;;;;;;5035591;28;20639;-66
2022/01/22 06:35:44;;;;;;;37.87;24.57;;;;;;;;;;5034952;28;20186;-65
2022/01/22 06:38:10;;;;;;;54.80;34.37;;;;;;;;;;5033688;28;20181;-66
2022/01/22 06:43:03;;;;;;;41.53;24.93;;;;;;;;;;5035341;28;20244;-66
2022/01/22 06:45:29;;;;;;;39.97;25.67;;;;;;;;;;5034724;28;20257;-66
2022/01/22 06:47:54;;;;;;;47.43;35.47;;;;;;;;;;5033459;28;20190;-66
2022/01/22 06:50:21;;;;;;;36.50;25.53;;;;;;;;;;5034403;28;20203;-66
2022/01/22 06:52:53;;;;;;;67.10;44.40;;;;;;;;;;5034949;28;20178;-67
2022/01/22 06:55:20;;;;;;;50.03;30.17;;;;;;;;;;5035066;28;20159;-66
2022/01/22 06:57:46;;;;;;;67.97;46.50;;;;;;;;;;5034444;28;20236;-66
2022/01/22 07:00:12;;;;;;;94.83;55.83;;;;;;;;;;5034324;28;20203;-67
2022/01/22 07:02:38;;;;;;;194.00;115.83;;;;;;;;;;5032996;28;20175;-66
2022/01/22 07:05:04;;;;;;;96.97;56.33;;;;;;;;;;5033139;28;20198;-66
2022/01/22 07:07:31;;;;;;;66.10;39.73;;;;;;;;;;5033290;28;20183;-66
2022/01/22 07:09:57;;;;;;;64.33;38.77;;;;;;;;;;5034776;28;20191;-66
2022/01/22 07:12:22;;;;;;;64.40;39.17;;;;;;;;;;5034245;28;20186;-66
2022/01/22 07:14:49;;;;;;;58.73;35.50;;;;;;;;;;5032860;28;20282;-68
2022/01/22 07:17:15;;;;;;;62.60;38.17;;;;;;;;;;5032912;28;20179;-66
2022/01/22 07:19:42;;;;;;;70.10;42.10;;;;;;;;;;5033903;28;20212;-66
2022/01/22 07:22:30;;;;;;;56.20;36.33;;;;;;;;;;5034272;28;20213;-66
2022/01/22 07:24:54;;;;;;;66.87;39.97;;;;;;;;;;5033885;28;20215;-68
2022/01/22 07:27:20;;;;;;;83.63;49.17;;;;;;;;;;5032637;28;20187;-66
2022/01/22 07:29:48;;;;;;;82.10;48.33;;;;;;;;;;5034139;28;20199;-66
2022/01/22 07:32:25;;;;;;;62.27;40.30;;;;;;;;;;5032485;28;20203;-66
2022/01/22 07:34:51;;;;;;;46.87;31.00;;;;;;;;;;5032581;28;20174;-66
2022/01/22 07:37:17;;;;;;;47.10;31.53;;;;;;;;;;5033776;28;20183;-66
2022/01/22 07:39:43;;;;;;;44.80;27.93;;;;;;;;;;5032539;28;20260;-66
2022/01/22 07:42:09;;;;;;;46.43;26.87;;;;;;;;;;5033700;28;20286;-66
2022/01/22 07:44:35;;;;;;;47.90;25.47;;;;;;;;;;5033601;28;20179;-66
2022/01/22 07:47:01;;;;;;;49.23;31.80;;;;;;;;;;5033660;28;20189;-66
2022/01/22 07:49:27;;;;;;;39.20;27.40;;;;;;;;;;5033920;28;20175;-66
2022/01/22 07:51:53;;;;;;;47.00;28.27;;;;;;;;;;5033502;28;20702;-66
2022/01/22 07:54:21;;;;;;;43.67;26.93;;;;;;;;;;5033509;28;20186;-66
2022/01/22 07:56:47;;;;;;;47.13;27.20;;;;;;;;;;5032489;28;20321;-66
2022/01/22 07:59:13;;;;;;;40.27;25.30;;;;;;;;;;5033891;28;20206;-66
2022/01/22 08:01:39;;;;;;;44.40;29.20;;;;;;;;;;5033346;28;20607;-66
2022/01/22 08:04:05;;;;;;;39.20;25.37;;;;;;;;;;5033523;28;20639;-66
2022/01/22 08:06:30;;;;;;;47.07;27.03;;;;;;;;;;5032148;28;20276;-66
2022/01/22 08:08:56;;;;;;;41.10;26.37;;;;;;;;;;5033581;28;20555;-66
2022/01/22 08:11:22;;;;;;;51.67;33.17;;;;;;;;;;5033211;28;20218;-66
2022/01/22 08:13:48;;;;;;;47.00;29.80;;;;;;;;;;5032904;28;20186;-66
2022/01/22 08:16:14;;;;;;;40.77;26.70;;;;;;;;;;5032086;28;20186;-66
2022/01/22 08:18:40;;;;;;;40.77;25.90;;;;;;;;;;5031836;28;20179;-67
2022/01/22 08:21:06;;;;;;;43.97;26.27;;;;;;;;;;5031870;28;20261;-66
2022/01/22 08:23:33;;;;;;;41.97;26.13;;;;;;;;;;5031991;28;20644;-67
2022/01/22 08:25:59;;;;;;;47.80;29.33;;;;;;;;;;5033085;28;20179;-66
2022/01/22 08:31:38;;;;;;;45.23;28.37;;;;;;;;;;5033106;28;20218;-67
2022/01/22 08:36:50;;;;;;;44.20;29.00;;;;;;;;;;5033360;28;20213;-67
2022/01/22 08:39:17;;;;;;;48.67;31.50;;;;;;;;;;5033038;28;20175;-66
2022/01/22 08:41:43;;;;;;;48.20;29.13;;;;;;;;;;5033117;28;20189;-67
2022/01/22 08:44:10;;;;;;;48.67;30.27;;;;;;;;;;5033750;28;20186;-66
2022/01/22 08:46:36;;;;;;;50.20;32.10;;;;;;;;;;5033184;28;20179;-66
2022/01/22 08:49:04;;;;;;;50.50;30.50;;;;;;;;;;5033108;28;20187;-66
2022/01/22 08:51:32;;;;;;;58.93;39.37;;;;;;;;;;5031648;28;20280;-66
2022/01/22 08:53:59;;;;;;;54.93;32.77;;;;;;;;;;5031847;28;20186;-67
2022/01/22 08:56:25;;;;;;;46.33;31.50;;;;;;;;;;5033114;28;20182;-66
2022/01/22 08:58:50;;;;;;;58.93;31.10;;;;;;;;;;5033267;28;20175;-67
2022/01/22 09:01:16;;;;;;;51.17;30.47;;;;;;;;;;5032971;28;20253;-67
2022/01/22 09:03:42;;;;;;;51.37;32.50;;;;;;;;;;5033391;28;20691;-66
2022/01/22 09:06:08;;;;;;;52.27;32.03;;;;;;;;;;5032752;28;20639;-67
2022/01/22 09:08:34;;;;;;;51.73;32.03;;;;;;;;;;5033269;28;20259;-67
2022/01/22 09:11:01;;;;;;;49.77;30.40;;;;;;;;;;5032440;28;20203;-67
2022/01/22 09:13:27;;;;;;;57.17;36.07;;;;;;;;;;5032663;28;20180;-67
2022/01/22 09:15:55;;;;;;;54.00;31.13;;;;;;;;;;5031366;28;20186;-67
2022/01/22 09:18:21;;;;;;;45.07;29.63;;;;;;;;;;5032587;28;20300;-67
2022/01/22 09:23:17;;;;;;;57.03;32.50;;;;;;;;;;5032850;28;20210;-67
2022/01/22 09:25:43;;;;;;;52.20;32.20;;;;;;;;;;5033119;28;20678;-67
2022/01/22 09:28:13;;;;;;;50.10;31.00;;;;;;;;;;5036508;28;20614;-67
2022/01/22 09:30:40;;;;;;;58.80;30.20;;;;;;;;;;5036427;28;20668;-67
2022/01/22 09:33:06;;;;;;;47.50;30.33;;;;;;;;;;5036387;28;20175;-66
2022/01/22 09:35:32;;;;;;;50.97;31.07;;;;;;;;;;5037308;28;20262;-66
2022/01/22 09:37:59;;;;;;;52.13;31.77;;;;;;;;;;5036773;28;20180;-67
2022/01/22 09:40:25;;;;;;;51.27;32.50;;;;;;;;;;5036031;28;20203;-67
2022/01/22 09:42:51;;;;;;;49.33;30.83;;;;;;;;;;5034702;28;20189;-67
2022/01/22 09:45:17;;;;;;;66.90;41.17;;;;;;;;;;5036416;28;20261;-67
2022/01/22 09:47:47;;;;;;;53.30;33.27;;;;;;;;;;5035795;28;20190;-67
2022/01/22 09:50:13;;;;;;;51.57;31.23;;;;;;;;;;5035722;28;20207;-67
2022/01/22 09:52:40;;;;;;;49.80;30.40;;;;;;;;;;5034461;28;20187;-67
2022/01/22 09:55:06;;;;;;;48.67;30.60;;;;;;;;;;5035726;28;20609;-67
2022/01/22 09:57:37;;;;;;;46.23;29.13;;;;;;;;;;5035415;28;20179;-67
2022/01/22 10:00:10;;;;;;;43.33;27.17;;;;;;;;;;5035544;28;20592;-66
2022/01/22 10:02:40;;;;;;;52.67;31.53;;;;;;;;;;5035279;28;20183;-67
2022/01/22 10:05:25;;;;;;;48.77;29.37;;;;;;;;;;5035239;28;20183;-67
2022/01/22 10:07:53;;;;;;;44.83;27.53;;;;;;;;;;5033917;28;20186;-67
2022/01/22 10:10:19;;;;;;;46.27;29.10;;;;;;;;;;5035029;28;20191;-67
2022/01/22 10:12:46;;;;;;;49.40;29.10;;;;;;;;;;5033856;28;20186;-67
2022/01/22 10:15:13;;;;;;;44.83;29.27;;;;;;;;;;5033838;28;20183;-67
2022/01/22 10:17:47;;;;;;;47.97;29.17;;;;;;;;;;5035074;28;20179;-66
2022/01/22 10:20:22;;;;;;;41.87;25.93;;;;;;;;;;5033480;28;20215;-67
2022/01/22 10:22:59;;;;;;;47.37;27.37;;;;;;;;;;5033786;28;20189;-67
2022/01/22 10:25:30;;;;;;;37.67;24.47;;;;;;;;;;5033842;28;20177;-66
2022/01/22 10:27:57;;;;;;;39.10;25.87;;;;;;;;;;5035309;28;20163;-67
2022/01/22 10:30:33;;;;;;;34.23;21.73;;;;;;;;;;5033572;28;20203;-66
2022/01/22 10:33:08;;;;;;;34.87;21.43;;;;;;;;;;5033586;28;20186;-67
2022/01/22 10:35:34;;;;;;;29.83;18.57;;;;;;;;;;5035192;28;20163;-67
2022/01/22 10:38:01;;;;;;;35.47;21.20;;;;;;;;;;5033080;28;20179;-67
2022/01/22 10:40:36;;;;;;;28.43;19.70;;;;;;;;;;5059019;22;20205;-64
2022/01/22 10:43:31;;;;;;;25.50;17.20;;;;;;;;;;5037482;28;20175;-65
2022/01/22 10:46:00;;;;;;;24.40;16.40;;;;;;;;;;5036495;28;20198;-65
2022/01/22 10:48:27;;;;;;;28.27;16.90;;;;;;;;;;5037736;28;20199;-64
2022/01/22 10:51:01;;;;;;;25.17;15.63;;;;;;;;;;5037608;28;20270;-64
2022/01/22 10:53:34;;;;;;;25.37;15.07;;;;;;;;;;5039942;28;20663;-65
2022/01/22 10:56:02;;;;;;;24.50;15.13;;;;;;;;;;5040018;28;20190;-65
2022/01/22 10:58:28;;;;;;;25.73;17.60;;;;;;;;;;5037932;28;20228;-64
2022/01/22 11:01:01;;;;;;;21.20;13.77;;;;;;;;;;5038636;28;20670;-65
2022/01/22 11:03:28;;;;;;;23.07;15.93;;;;;;;;;;5038004;28;20187;-65
2022/01/22 11:05:55;;;;;;;27.77;17.43;;;;;;;;;;5037418;28;20209;-64
2022/01/22 11:08:21;;;;;;;22.50;14.27;;;;;;;;;;5038980;28;20182;-66
2022/01/22 11:10:48;;;;;;;23.67;13.70;;;;;;;;;;5036176;28;20622;-64
2022/01/22 11:13:14;;;;;;;22.23;15.43;;;;;;;;;;5038725;28;20258;-64
2022/01/22 11:15:41;;;;;;;26.83;16.20;;;;;;;;;;5036160;28;20211;-64
2022/01/22 11:18:08;;;;;;;26.00;14.77;;;;;;;;;;5038597;28;20238;-64
2022/01/22 11:20:34;;;;;;;24.60;15.43;;;;;;;;;;5037409;28;20187;-65
2022/01/22 11:23:00;;;;;;;25.47;16.60;;;;;;;;;;5038255;28;20171;-65
2022/01/22 11:25:27;;;;;;;22.03;15.47;;;;;;;;;;5039709;28;20175;-65
2022/01/22 11:27:53;;;;;;;26.53;16.73;;;;;;;;;;5039600;28;20188;-65
2022/01/22 11:30:25;;;;;;;37.90;22.80;;;;;;;;;;5039578;28;20203;-65
2022/01/22 11:33:11;;;;;;;29.10;18.77;;;;;;;;;;5037325;28;20167;-65
2022/01/22 11:35:37;;;;;;;39.53;24.57;;;;;;;;;;5036911;28;20187;-64
2022/01/22 11:38:16;;;;;;;62.30;42.87;;;;;;;;;;5035599;28;20179;-65
2022/01/22 11:40:43;;;;;;;30.87;18.67;;;;;;;;;;5036183;28;20219;-65
2022/01/22 11:43:12;;;;;;;29.83;19.73;;;;;;;;;;5039844;28;20164;-64
2022/01/22 11:45:50;;;;;;;27.40;18.70;;;;;;;;;;5037932;28;20215;-65
2022/01/22 11:48:27;;;;;;;68.80;49.93;;;;;;;;;;5035704;28;20247;-65
2022/01/22 11:50:54;;;;;;;54.20;37.63;;;;;;;;;;5036140;28;20221;-66
2022/01/22 11:53:27;;;;;;;31.40;18.57;;;;;;;;;;5037898;28;20175;-64
2022/01/22 11:56:21;;;;;;;30.17;18.10;;;;;;;;;;5039008;28;20554;-65
2022/01/22 11:58:59;;;;;;;65.63;36.20;;;;;;;;;;5038161;28;20163;-65
2022/01/22 12:01:40;;;;;;;27.80;17.57;;;;;;;;;;5036500;28;20210;-65
2022/01/22 12:04:07;;;;;;;113.63;58.97;;;;;;;;;;5039346;28;20175;-64
2022/01/22 12:06:33;;;;;;;32.07;17.20;;;;;;;;;;5037676;28;20175;-64
2022/01/22 12:09:05;;;;;;;27.63;16.63;;;;;;;;;;5037149;28;20179;-65
2022/01/22 12:14:42;;;;;;;42.90;22.20;;;;;;;;;;5038952;28;20198;-65
2022/01/22 12:17:13;;;;;;;25.80;15.30;;;;;;;;;;5038640;28;20668;-65
2022/01/22 12:22:30;;;;;;;26.20;16.00;;;;;;;;;;5041231;28;20213;-65
2022/01/22 12:24:56;;;;;;;64.60;31.07;;;;;;;;;;5040948;28;20226;-64
2022/01/22 12:27:51;;;;;;;27.77;16.13;;;;;;;;;;5039595;28;20643;-65
2022/01/22 12:30:38;;;;;;;37.27;18.47;;;;;;;;;;5035604;28;20608;-66
2022/01/22 12:33:07;;;;;;;27.87;15.57;;;;;;;;;;5035751;28;20221;-65
2022/01/22 12:35:35;;;;;;;46.70;21.93;;;;;;;;;;5038532;28;20175;-66
2022/01/22 12:38:18;;;;;;;132.77;51.80;;;;;;;;;;5036898;28;20557;-65
2022/01/22 12:40:46;;;;;;;42.17;21.60;;;;;;;;;;5036915;28;20313;-67
2022/01/22 12:43:19;;;;;;;50.67;23.40;;;;;;;;;;5038804;28;20162;-65
2022/01/22 12:45:45;;;;;;;82.60;38.00;;;;;;;;;;5037419;28;20175;-65
2022/01/22 12:48:13;;;;;;;55.30;24.50;;;;;;;;;;5038947;28;20187;-66
2022/01/22 12:50:39;;;;;;;39.90;20.00;;;;;;;;;;5037512;28;20219;-64
2022/01/22 12:53:11;;;;;;;37.73;20.87;;;;;;;;;;5038480;28;20179;-65
2022/01/22 12:58:21;;;;;;;38.40;22.63;;;;;;;;;;5040081;28;20167;-63
2022/01/22 13:00:47;;;;;;;74.27;34.53;;;;;;;;;;5041206;28;20227;-64
2022/01/22 13:03:13;;;;;;;54.50;27.10;;;;;;;;;;5042857;28;20183;-65
2022/01/22 13:05:45;;;;;;;42.93;24.97;;;;;;;;;;5041758;28;20214;-65
2022/01/22 13:08:11;;;;;;;92.17;43.90;;;;;;;;;;5042213;28;20191;-66
2022/01/22 13:10:43;;;;;;;89.63;37.83;;;;;;;;;;5042702;28;20720;-65
2022/01/22 13:13:14;;;;;;;38.83;25.67;;;;;;;;;;5041437;28;20180;-65
2022/01/22 13:15:40;;;;;;;47.23;28.87;;;;;;;;;;5040748;28;20167;-65
2022/01/22 13:18:06;;;;;;;34.43;21.40;;;;;;;;;;5041526;28;20207;-64
2022/01/22 13:20:32;;;;;;;37.00;23.57;;;;;;;;;;5039537;28;20186;-65
2022/01/22 13:23:02;;;;;;;31.23;20.30;;;;;;;;;;5041513;28;20179;-65
2022/01/22 13:25:28;;;;;;;25.30;17.80;;;;;;;;;;5040566;28;20281;-65
2022/01/22 13:28:09;;;;;;;45.57;28.17;;;;;;;;;;5042073;28;20211;-66
2022/01/22 13:30:41;;;;;;;30.53;17.60;;;;;;;;;;5041370;28;20199;-65
2022/01/22 13:33:17;;;;;;;34.80;20.80;;;;;;;;;;5039644;28;20183;-65
2022/01/22 13:35:56;;;;;;;37.83;27.57;;;;;;;;;;5039454;28;20179;-66
2022/01/22 13:38:40;;;;;;;27.43;19.50;;;;;;;;;;5040259;28;20592;-65
2022/01/22 13:49:32;;;;;;;23.33;14.57;;;;;;;;;;5041908;28;20205;-67
2022/01/22 13:52:02;;;;;;;24.73;15.17;;;;;;;;;;5041408;28;20219;-65
2022/01/22 13:54:30;;;;;;;22.47;13.27;;;;;;;;;;5040494;28;20179;-66
2022/01/22 13:56:59;;;;;;;23.77;11.83;;;;;;;;;;5040839;28;20194;-65
2022/01/22 13:59:27;;;;;;;16.83;12.37;;;;;;;;;;5041356;28;20198;-63
2022/01/22 14:02:12;;;;;;;21.83;13.33;;;;;;;;;;5040836;28;20631;-65
2022/01/22 14:04:42;;;;;;;20.77;13.13;;;;;;;;;;5039461;28;20179;-65
2022/01/22 14:07:27;;;;;;;21.93;11.40;;;;;;;;;;5039349;28;20179;-65
2022/01/22 14:09:56;;;;;;;19.80;11.60;;;;;;;;;;5041334;28;20187;-65
2022/01/22 14:12:23;;;;;;;19.13;12.10;;;;;;;;;;5039582;28;20219;-65
2022/01/22 14:15:00;;;;;;;22.03;12.50;;;;;;;;;;5039974;28;20175;-65
2022/01/22 14:17:31;;;;;;;24.63;14.03;;;;;;;;;;5041508;28;20171;-66
2022/01/22 14:20:08;;;;;;;16.67;12.83;;;;;;;;;;5040957;28;20160;-65
2022/01/22 14:22:53;;;;;;;21.87;12.87;;;;;;;;;;5040363;28;20218;-65
2022/01/22 14:25:19;;;;;;;22.77;13.13;;;;;;;;;;5040686;28;20203;-65
2022/01/22 14:28:06;;;;;;;22.37;14.80;;;;;;;;;;5040163;28;20183;-65
2022/01/22 14:30:34;;;;;;;23.23;13.53;;;;;;;;;;5040613;28;20373;-65
2022/01/22 14:33:00;;;;;;;62.50;34.73;;;;;;;;;;5041192;28;20539;-65
2022/01/22 14:35:26;;;;;;;27.33;16.17;;;;;;;;;;5039035;28;20179;-65
2022/01/22 14:37:55;;;;;;;23.13;14.57;;;;;;;;;;5039041;28;20651;-66
2022/01/22 14:45:58;;;;;;;23.87;15.10;;;;;;;;;;5040691;28;20165;-65
2022/01/22 14:48:25;;;;;;;24.03;18.20;;;;;;;;;;5039614;28;20175;-65
2022/01/22 14:50:50;;;;;;;32.93;22.63;;;;;;;;;;5038355;28;20219;-65
2022/01/22 14:53:16;;;;;;;19.87;13.37;;;;;;;;;;5039413;28;20175;-65
2022/01/22 14:55:50;;;;;;;22.00;14.90;;;;;;;;;;5038705;28;20205;-65
2022/01/22 14:58:16;;;;;;;26.33;16.63;;;;;;;;;;5040162;28;20639;-64
2022/01/22 15:00:42;;;;;;;18.27;13.37;;;;;;;;;;5040283;28;20270;-65
2022/01/22 15:03:08;;;;;;;16.20;10.90;;;;;;;;;;5040403;28;20215;-65
2022/01/22 15:05:34;;;;;;;15.43;10.73;;;;;;;;;;5038684;28;20217;-65
2022/01/22 15:08:00;;;;;;;15.53;12.03;;;;;;;;;;5039725;28;20183;-65
2022/01/22 15:10:26;;;;;;;15.30;10.90;;;;;;;;;;5039110;28;20190;-64
2022/01/22 15:12:52;;;;;;;15.20;10.37;;;;;;;;;;5040377;28;20179;-64
2022/01/22 15:15:21;;;;;;;15.37;10.70;;;;;;;;;;5040738;28;20182;-63
2022/01/22 15:20:20;;;;;;;18.73;11.00;;;;;;;;;;5039686;28;20532;-65
2022/01/22 15:22:46;;;;;;;15.40;11.00;;;;;;;;;;5039677;28;20551;-64
2022/01/22 15:25:12;;;;;;;16.70;11.67;;;;;;;;;;5040173;28;20183;-65
2022/01/22 15:27:38;;;;;;;17.03;11.90;;;;;;;;;;5038819;28;20233;-64
2022/01/22 15:35:04;;;;;;;25.20;19.10;;;;;;;;;;5039008;28;20186;-65
2022/01/22 15:37:30;;;;;;;18.90;13.80;;;;;;;;;;5037797;28;20187;-65
2022/01/22 15:39:56;;;;;;;16.10;11.73;;;;;;;;;;5038382;28;20171;-64
2022/01/22 15:42:22;;;;;;;18.17;11.70;;;;;;;;;;5037186;28;20222;-66
2022/01/22 15:44:48;;;;;;;18.93;12.53;;;;;;;;;;5039426;28;20588;-65
2022/01/22 15:47:14;;;;;;;33.20;23.23;;;;;;;;;;5039391;28;20636;-63
2022/01/22 15:49:43;;;;;;;18.63;12.60;;;;;;;;;;5037493;28;20181;-65
2022/01/22 15:52:09;;;;;;;18.93;13.13;;;;;;;;;;5037935;28;20277;-64
2022/01/22 15:54:36;;;;;;;17.27;11.93;;;;;;;;;;5038516;28;20207;-65
2022/01/22 15:57:05;;;;;;;20.80;13.03;;;;;;;;;;5039410;28;20187;-64
2022/01/22 15:59:31;;;;;;;19.93;13.80;;;;;;;;;;5038176;28;20251;-64
2022/01/22 16:01:57;;;;;;;16.70;12.37;;;;;;;;;;5039926;28;20230;-65
2022/01/22 16:04:23;;;;;;;24.37;18.33;;;;;;;;;;5039460;28;20183;-63
2022/01/22 16:09:19;;;;;;;19.77;14.77;;;;;;;;;;5039158;28;20187;-65
2022/01/22 16:11:46;;;;;;;26.37;19.37;;;;;;;;;;5039376;28;20209;-65
2022/01/22 16:14:12;;;;;;;24.87;16.90;;;;;;;;;;5039938;28;20238;-66
2022/01/22 16:16:41;;;;;;;19.23;14.47;;;;;;;;;;5038208;28;20193;-65
2022/01/22 16:19:08;;;;;;;20.87;15.60;;;;;;;;;;5038679;28;20179;-65
2022/01/22 16:21:34;;;;;;;21.63;16.00;;;;;;;;;;5038703;28;20234;-65
2022/01/22 16:24:00;;;;;;;20.97;15.90;;;;;;;;;;5040367;28;20194;-63